sensor_id;sensor_type;location;lat;lon;timestamp;pressure;altitude;pressure_sealevel;temperature;humidity
56582;BME280;42463;52.214;21.238;2023-05-22T00:01:40;100819.39;;;15.33;55.85
56582;BME280;42463;52.214;21.238;2023-05-22T00:03:46;100816.33;;;15.30;56.06
56582;BME280;42463;52.214;21.238;2023-05-22T00:05:53;100816.55;;;15.26;56.18
56582;BME280;42463;52.214;21.238;2023-05-22T00:08:02;100824.15;;;15.22;56.06
56582;BME280;42463;52.214;21.238;2023-05-22T00:10:09;100825.09;;;15.18;56.07
56582;BME280;42463;52.214;21.238;2023-05-22T00:12:14;100823.84;;;15.16;56.10
56582;BME280;42463;52.214;21.238;2023-05-22T00:14:20;100821.98;;;15.14;56.18
56582;BME280;42463;52.214;21.238;2023-05-22T00:16:25;100822.74;;;15.11;55.93
56582;BME280;42463;52.214;21.238;2023-05-22T00:18:31;100820.34;;;15.09;56.08
56582;BME280;42463;52.214;21.238;2023-05-22T00:20:36;100817.12;;;15.07;56.10
56582;BME280;42463;52.214;21.238;2023-05-22T00:22:42;100816.02;;;15.03;56.06
56582;BME280;42463;52.214;21.238;2023-05-22T00:24:48;100812.86;;;14.99;56.29
56582;BME280;42463;52.214;21.238;2023-05-22T00:26:53;100808.66;;;14.95;56.37
56582;BME280;42463;52.214;21.238;2023-05-22T00:28:59;100808.44;;;14.92;56.35
56582;BME280;42463;52.214;21.238;2023-05-22T00:31:05;100808.33;;;14.89;56.52
56582;BME280;42463;52.214;21.238;2023-05-22T00:33:11;100811.98;;;14.87;56.44
56582;BME280;42463;52.214;21.238;2023-05-22T00:35:17;100807.02;;;14.85;56.42
56582;BME280;42463;52.214;21.238;2023-05-22T00:37:22;100805.92;;;14.83;56.49
56582;BME280;42463;52.214;21.238;2023-05-22T00:39:28;100805.43;;;14.81;56.62
56582;BME280;42463;52.214;21.238;2023-05-22T00:41:34;100805.54;;;14.80;56.60
56582;BME280;42463;52.214;21.238;2023-05-22T00:43:39;100810.19;;;14.79;56.45
56582;BME280;42463;52.214;21.238;2023-05-22T00:45:45;100808.00;;;14.78;56.78
56582;BME280;42463;52.214;21.238;2023-05-22T00:47:50;100809.31;;;14.77;56.60
56582;BME280;42463;52.214;21.238;2023-05-22T00:49:57;100808.49;;;14.78;56.65
56582;BME280;42463;52.214;21.238;2023-05-22T00:52:03;100807.23;;;14.77;56.73
56582;BME280;42463;52.214;21.238;2023-05-22T00:54:09;100809.96;;;14.77;56.73
56582;BME280;42463;52.214;21.238;2023-05-22T00:56:16;100805.21;;;14.74;56.54
56582;BME280;42463;52.214;21.238;2023-05-22T00:58:25;100804.27;;;14.73;56.69
56582;BME280;42463;52.214;21.238;2023-05-22T01:03:43;100810.73;;;14.69;56.64
56582;BME280;42463;52.214;21.238;2023-05-22T01:05:50;100806.52;;;14.67;56.60
56582;BME280;42463;52.214;21.238;2023-05-22T01:07:56;100805.70;;;14.64;56.72
56582;BME280;42463;52.214;21.238;2023-05-22T01:10:02;100807.72;;;14.61;56.74
56582;BME280;42463;52.214;21.238;2023-05-22T01:12:16;100806.67;;;14.58;56.71
56582;BME280;42463;52.214;21.238;2023-05-22T01:14:31;100805.88;;;14.56;56.79
56582;BME280;42463;52.214;21.238;2023-05-22T01:16:42;100808.55;;;14.53;56.92
56582;BME280;42463;52.214;21.238;2023-05-22T01:18:57;100810.99;;;14.51;56.89
56582;BME280;42463;52.214;21.238;2023-05-22T01:21:10;100808.33;;;14.50;56.88
56582;BME280;42463;52.214;21.238;2023-05-22T01:26:16;100803.47;;;14.50;56.95
56582;BME280;42463;52.214;21.238;2023-05-22T01:28:38;100803.19;;;14.50;57.04
56582;BME280;42463;52.214;21.238;2023-05-22T01:30:52;100802.98;;;14.48;56.96
56582;BME280;42463;52.214;21.238;2023-05-22T01:32:58;100806.73;;;14.48;57.00
56582;BME280;42463;52.214;21.238;2023-05-22T01:35:06;100797.45;;;14.44;56.96
56582;BME280;42463;52.214;21.238;2023-05-22T01:37:14;100803.41;;;14.46;56.92
56582;BME280;42463;52.214;21.238;2023-05-22T01:39:22;100804.66;;;14.45;57.04
56582;BME280;42463;52.214;21.238;2023-05-22T01:41:30;100808.86;;;14.43;56.95
56582;BME280;42463;52.214;21.238;2023-05-22T01:43:36;100806.76;;;14.41;57.05
56582;BME280;42463;52.214;21.238;2023-05-22T01:45:42;100803.30;;;14.37;57.01
56582;BME280;42463;52.214;21.238;2023-05-22T01:47:48;100806.35;;;14.34;57.09
56582;BME280;42463;52.214;21.238;2023-05-22T01:49:55;100808.70;;;14.30;57.29
56582;BME280;42463;52.214;21.238;2023-05-22T01:52:04;100811.95;;;14.27;57.26
56582;BME280;42463;52.214;21.238;2023-05-22T01:54:16;100810.59;;;14.25;57.27
56582;BME280;42463;52.214;21.238;2023-05-22T01:56:30;100816.20;;;14.22;57.22
56582;BME280;42463;52.214;21.238;2023-05-22T01:58:38;100812.37;;;14.18;57.36
56582;BME280;42463;52.214;21.238;2023-05-22T02:00:47;100812.64;;;14.14;57.37
56582;BME280;42463;52.214;21.238;2023-05-22T02:03:03;100815.23;;;14.10;57.58
56582;BME280;42463;52.214;21.238;2023-05-22T02:05:12;100810.42;;;14.05;57.75
56582;BME280;42463;52.214;21.238;2023-05-22T02:07:23;100813.36;;;14.05;57.82
56582;BME280;42463;52.214;21.238;2023-05-22T02:09:30;100809.54;;;14.01;57.78
56582;BME280;42463;52.214;21.238;2023-05-22T02:11:37;100809.59;;;14.00;57.85
56582;BME280;42463;52.214;21.238;2023-05-22T02:13:44;100809.16;;;14.01;57.80
56582;BME280;42463;52.214;21.238;2023-05-22T02:15:50;100802.87;;;13.96;57.70
56582;BME280;42463;52.214;21.238;2023-05-22T02:17:56;100807.23;;;13.98;57.83
56582;BME280;42463;52.214;21.238;2023-05-22T02:20:04;100808.59;;;13.96;57.77
56582;BME280;42463;52.214;21.238;2023-05-22T02:22:19;100810.98;;;13.94;57.71
56582;BME280;42463;52.214;21.238;2023-05-22T02:24:24;100810.71;;;13.94;57.91
56582;BME280;42463;52.214;21.238;2023-05-22T02:26:31;100811.36;;;13.92;57.77
56582;BME280;42463;52.214;21.238;2023-05-22T02:28:37;100811.90;;;13.91;57.72
56582;BME280;42463;52.214;21.238;2023-05-22T02:30:44;100807.16;;;13.91;57.68
56582;BME280;42463;52.214;21.238;2023-05-22T02:32:49;100806.39;;;13.90;57.75
56582;BME280;42463;52.214;21.238;2023-05-22T02:34:55;100804.68;;;13.86;57.86
56582;BME280;42463;52.214;21.238;2023-05-22T02:37:02;100810.41;;;13.87;57.89
56582;BME280;42463;52.214;21.238;2023-05-22T02:39:07;100809.75;;;13.86;57.85
56582;BME280;42463;52.214;21.238;2023-05-22T02:41:13;100808.66;;;13.87;57.96
56582;BME280;42463;52.214;21.238;2023-05-22T02:43:19;100806.59;;;13.86;57.96
56582;BME280;42463;52.214;21.238;2023-05-22T02:45:24;100805.01;;;13.86;57.88
56582;BME280;42463;52.214;21.238;2023-05-22T02:47:30;100801.19;;;13.86;57.88
56582;BME280;42463;52.214;21.238;2023-05-22T02:49:35;100801.41;;;13.86;57.96
56582;BME280;42463;52.214;21.238;2023-05-22T02:51:41;100804.08;;;13.85;58.04
56582;BME280;42463;52.214;21.238;2023-05-22T02:53:51;100800.86;;;13.85;58.18
56582;BME280;42463;52.214;21.238;2023-05-22T02:55:56;100797.41;;;13.84;58.20
56582;BME280;42463;52.214;21.238;2023-05-22T02:58:03;100796.66;;;13.84;58.31
56582;BME280;42463;52.214;21.238;2023-05-22T03:00:10;100793.27;;;13.85;58.22
56582;BME280;42463;52.214;21.238;2023-05-22T03:02:16;100795.08;;;13.85;58.44
56582;BME280;42463;52.214;21.238;2023-05-22T03:04:21;100793.05;;;13.85;58.23
56582;BME280;42463;52.214;21.238;2023-05-22T03:06:27;100791.80;;;13.84;58.30
56582;BME280;42463;52.214;21.238;2023-05-22T03:08:32;100791.80;;;13.84;58.33
56582;BME280;42463;52.214;21.238;2023-05-22T03:10:41;100785.86;;;13.83;58.36
56582;BME280;42463;52.214;21.238;2023-05-22T03:12:46;100790.71;;;13.85;58.49
56582;BME280;42463;52.214;21.238;2023-05-22T03:14:52;100784.45;;;13.85;58.47
56582;BME280;42463;52.214;21.238;2023-05-22T03:16:58;100786.13;;;13.86;58.50
56582;BME280;42463;52.214;21.238;2023-05-22T03:19:11;100787.83;;;13.87;58.46
56582;BME280;42463;52.214;21.238;2023-05-22T03:21:17;100785.00;;;13.88;58.47
56582;BME280;42463;52.214;21.238;2023-05-22T03:23:22;100781.95;;;13.89;58.51
56582;BME280;42463;52.214;21.238;2023-05-22T03:25:28;100775.55;;;13.87;58.47
56582;BME280;42463;52.214;21.238;2023-05-22T03:27:34;100783.05;;;13.93;58.63
56582;BME280;42463;52.214;21.238;2023-05-22T03:29:40;100783.66;;;13.97;58.54
56582;BME280;42463;52.214;21.238;2023-05-22T03:31:45;100783.23;;;13.99;58.60
56582;BME280;42463;52.214;21.238;2023-05-22T03:33:52;100783.30;;;14.02;58.51
56582;BME280;42463;52.214;21.238;2023-05-22T03:35:58;100784.84;;;14.06;58.40
56582;BME280;42463;52.214;21.238;2023-05-22T03:38:03;100786.21;;;14.09;58.28
56582;BME280;42463;52.214;21.238;2023-05-22T03:40:10;100790.15;;;14.13;58.29
56582;BME280;42463;52.214;21.238;2023-05-22T03:42:16;100791.47;;;14.17;58.18
56582;BME280;42463;52.214;21.238;2023-05-22T03:44:22;100791.36;;;14.19;57.95
56582;BME280;42463;52.214;21.238;2023-05-22T03:46:27;100791.55;;;14.22;58.24
56582;BME280;42463;52.214;21.238;2023-05-22T03:48:33;100789.03;;;14.24;58.10
56582;BME280;42463;52.214;21.238;2023-05-22T03:50:39;100788.98;;;14.28;58.00
56582;BME280;42463;52.214;21.238;2023-05-22T03:52:44;100787.73;;;14.31;58.05
56582;BME280;42463;52.214;21.238;2023-05-22T03:54:49;100790.47;;;14.34;58.08
56582;BME280;42463;52.214;21.238;2023-05-22T03:56:56;100788.08;;;14.40;58.01
56582;BME280;42463;52.214;21.238;2023-05-22T03:59:02;100792.48;;;14.44;57.99
56582;BME280;42463;52.214;21.238;2023-05-22T04:01:07;100796.75;;;14.49;57.86
56582;BME280;42463;52.214;21.238;2023-05-22T04:03:14;100795.01;;;14.53;57.72
56582;BME280;42463;52.214;21.238;2023-05-22T04:05:23;100792.37;;;14.58;57.49
56582;BME280;42463;52.214;21.238;2023-05-22T04:07:28;100791.77;;;14.63;57.57
56582;BME280;42463;52.214;21.238;2023-05-22T04:09:36;100787.67;;;14.68;57.48
56582;BME280;42463;52.214;21.238;2023-05-22T04:11:42;100792.33;;;14.73;57.19
56582;BME280;42463;52.214;21.238;2023-05-22T04:13:49;100796.52;;;14.78;57.27
56582;BME280;42463;52.214;21.238;2023-05-22T04:15:54;100790.02;;;14.83;57.25
56582;BME280;42463;52.214;21.238;2023-05-22T04:18:00;100792.59;;;14.89;57.21
56582;BME280;42463;52.214;21.238;2023-05-22T04:20:08;100794.17;;;14.96;57.06
56582;BME280;42463;52.214;21.238;2023-05-22T04:22:14;100794.00;;;15.03;57.01
56582;BME280;42463;52.214;21.238;2023-05-22T04:24:21;100783.13;;;15.03;57.04
56582;BME280;42463;52.214;21.238;2023-05-22T04:26:27;100791.80;;;15.17;56.95
56582;BME280;42463;52.214;21.238;2023-05-22T04:28:35;100788.63;;;15.23;56.69
56582;BME280;42463;52.214;21.238;2023-05-22T04:30:41;100778.98;;;15.28;56.59
56582;BME280;42463;52.214;21.238;2023-05-22T04:32:46;100783.67;;;15.36;56.51
56582;BME280;42463;52.214;21.238;2023-05-22T04:34:51;100777.75;;;15.42;56.57
56582;BME280;42463;52.214;21.238;2023-05-22T04:36:57;100780.31;;;15.49;56.45
56582;BME280;42463;52.214;21.238;2023-05-22T04:39:03;100777.78;;;15.56;56.56
56582;BME280;42463;52.214;21.238;2023-05-22T04:41:08;100773.86;;;15.63;56.57
56582;BME280;42463;52.214;21.238;2023-05-22T04:43:14;100770.66;;;15.70;56.37
56582;BME280;42463;52.214;21.238;2023-05-22T04:45:21;100764.06;;;15.77;56.07
56582;BME280;42463;52.214;21.238;2023-05-22T04:47:28;100765.19;;;15.84;55.97
56582;BME280;42463;52.214;21.238;2023-05-22T04:49:34;100766.20;;;15.89;55.98
56582;BME280;42463;52.214;21.238;2023-05-22T04:51:40;100770.20;;;16.00;56.23
56582;BME280;42463;52.214;21.238;2023-05-22T04:53:45;100769.77;;;16.08;56.23
56582;BME280;42463;52.214;21.238;2023-05-22T04:55:53;100768.25;;;16.15;56.19
56582;BME280;42463;52.214;21.238;2023-05-22T04:57:59;100768.97;;;16.23;55.95
56582;BME280;42463;52.214;21.238;2023-05-22T05:00:06;100766.23;;;16.31;55.80
56582;BME280;42463;52.214;21.238;2023-05-22T05:02:14;100762.95;;;16.40;55.70
56582;BME280;42463;52.214;21.238;2023-05-22T05:04:19;100762.39;;;16.48;55.43
56582;BME280;42463;52.214;21.238;2023-05-22T05:06:25;100764.46;;;16.57;55.07
56582;BME280;42463;52.214;21.238;2023-05-22T05:08:30;100765.20;;;16.66;55.18
56582;BME280;42463;52.214;21.238;2023-05-22T05:10:36;100766.26;;;16.74;55.23
56582;BME280;42463;52.214;21.238;2023-05-22T05:12:41;100768.80;;;16.83;55.01
56582;BME280;42463;52.214;21.238;2023-05-22T05:14:48;100774.88;;;16.90;54.79
56582;BME280;42463;52.214;21.238;2023-05-22T05:16:53;100776.50;;;16.98;54.61
56582;BME280;42463;52.214;21.238;2023-05-22T05:19:00;100777.53;;;17.05;54.32
56582;BME280;42463;52.214;21.238;2023-05-22T05:21:06;100777.19;;;17.13;54.33
56582;BME280;42463;52.214;21.238;2023-05-22T05:23:12;100778.77;;;17.20;54.27
56582;BME280;42463;52.214;21.238;2023-05-22T05:25:18;100775.02;;;17.26;54.23
56582;BME280;42463;52.214;21.238;2023-05-22T05:27:24;100776.98;;;17.33;53.71
56582;BME280;42463;52.214;21.238;2023-05-22T05:29:31;100776.96;;;17.40;53.45
56582;BME280;42463;52.214;21.238;2023-05-22T05:31:56;100776.42;;;17.48;53.09
56582;BME280;42463;52.214;21.238;2023-05-22T05:34:10;100777.10;;;17.57;53.14
56582;BME280;42463;52.214;21.238;2023-05-22T05:36:49;100775.09;;;17.67;52.67
56582;BME280;42463;52.214;21.238;2023-05-22T05:38:56;100777.40;;;17.74;52.31
56582;BME280;42463;52.214;21.238;2023-05-22T05:41:02;100777.80;;;17.80;51.61
56582;BME280;42463;52.214;21.238;2023-05-22T05:43:08;100776.34;;;17.87;51.51
56582;BME280;42463;52.214;21.238;2023-05-22T05:45:15;100772.09;;;17.94;51.56
56582;BME280;42463;52.214;21.238;2023-05-22T05:47:20;100766.60;;;17.98;51.31
56582;BME280;42463;52.214;21.238;2023-05-22T05:49:27;100774.08;;;18.09;51.53
56582;BME280;42463;52.214;21.238;2023-05-22T05:51:33;100773.70;;;18.17;51.34
56582;BME280;42463;52.214;21.238;2023-05-22T05:53:38;100776.21;;;18.26;51.83
56582;BME280;42463;52.214;21.238;2023-05-22T05:55:45;100775.09;;;18.34;51.78
56582;BME280;42463;52.214;21.238;2023-05-22T05:57:51;100776.36;;;18.41;50.03
56582;BME280;42463;52.214;21.238;2023-05-22T06:00:04;100776.96;;;18.48;49.87
56582;BME280;42463;52.214;21.238;2023-05-22T06:02:18;100772.99;;;18.56;49.40
56582;BME280;42463;52.214;21.238;2023-05-22T06:04:24;100772.13;;;18.65;49.23
56582;BME280;42463;52.214;21.238;2023-05-22T06:06:32;100773.92;;;18.73;48.97
56582;BME280;42463;52.214;21.238;2023-05-22T06:09:02;100769.05;;;18.83;49.04
56582;BME280;42463;52.214;21.238;2023-05-22T06:11:10;100771.10;;;18.91;47.47
56582;BME280;42463;52.214;21.238;2023-05-22T06:13:16;100772.59;;;18.98;46.54
56582;BME280;42463;52.214;21.238;2023-05-22T06:15:23;100773.68;;;19.04;46.26
56582;BME280;42463;52.214;21.238;2023-05-22T06:17:28;100773.10;;;19.11;46.52
56582;BME280;42463;52.214;21.238;2023-05-22T06:19:34;100771.48;;;19.20;46.39
56582;BME280;42463;52.214;21.238;2023-05-22T06:21:40;100770.42;;;19.29;46.97
56582;BME280;42463;52.214;21.238;2023-05-22T06:23:45;100763.23;;;19.36;45.96
56582;BME280;42463;52.214;21.238;2023-05-22T06:25:51;100767.93;;;19.44;45.32
56582;BME280;42463;52.214;21.238;2023-05-22T06:27:57;100768.86;;;19.50;45.09
56582;BME280;42463;52.214;21.238;2023-05-22T06:30:04;100765.20;;;19.56;44.76
56582;BME280;42463;52.214;21.238;2023-05-22T06:32:14;100764.23;;;19.63;44.87
56582;BME280;42463;52.214;21.238;2023-05-22T06:34:19;100761.27;;;19.70;44.54
56582;BME280;42463;52.214;21.238;2023-05-22T06:36:26;100759.40;;;19.76;44.74
56582;BME280;42463;52.214;21.238;2023-05-22T06:38:32;100757.87;;;19.82;44.73
56582;BME280;42463;52.214;21.238;2023-05-22T06:40:37;100759.67;;;19.87;44.94
56582;BME280;42463;52.214;21.238;2023-05-22T06:42:50;100762.85;;;19.93;44.09
56582;BME280;42463;52.214;21.238;2023-05-22T06:44:59;100763.23;;;19.99;43.29
56582;BME280;42463;52.214;21.238;2023-05-22T06:47:11;100760.46;;;20.04;43.03
56582;BME280;42463;52.214;21.238;2023-05-22T06:49:16;100759.01;;;20.08;42.57
56582;BME280;42463;52.214;21.238;2023-05-22T06:51:25;100755.83;;;20.12;42.62
56582;BME280;42463;52.214;21.238;2023-05-22T06:53:35;100758.11;;;20.16;42.26
56582;BME280;42463;52.214;21.238;2023-05-22T06:55:43;100756.80;;;20.20;42.02
56582;BME280;42463;52.214;21.238;2023-05-22T06:57:51;100754.08;;;20.26;41.98
56582;BME280;42463;52.214;21.238;2023-05-22T06:59:57;100754.94;;;20.31;41.76
56582;BME280;42463;52.214;21.238;2023-05-22T07:02:25;100755.86;;;20.36;41.43
56582;BME280;42463;52.214;21.238;2023-05-22T07:05:00;100751.11;;;20.43;41.69
56582;BME280;42463;52.214;21.238;2023-05-22T07:07:10;100747.62;;;20.48;40.58
56582;BME280;42463;52.214;21.238;2023-05-22T07:09:17;100751.50;;;20.55;41.18
56582;BME280;42463;52.214;21.238;2023-05-22T07:11:25;100747.67;;;20.60;40.14
56582;BME280;42463;52.214;21.238;2023-05-22T07:13:30;100743.30;;;20.65;39.42
56582;BME280;42463;52.214;21.238;2023-05-22T07:15:36;100743.79;;;20.69;38.87
56582;BME280;42463;52.214;21.238;2023-05-22T07:17:42;100745.73;;;20.76;38.45
56582;BME280;42463;52.214;21.238;2023-05-22T07:19:47;100744.86;;;20.80;38.09
56582;BME280;42463;52.214;21.238;2023-05-22T07:21:54;100746.08;;;20.83;38.42
56582;BME280;42463;52.214;21.238;2023-05-22T07:23:59;100749.00;;;20.89;38.71
56582;BME280;42463;52.214;21.238;2023-05-22T07:26:07;100745.30;;;20.94;38.75
56582;BME280;42463;52.214;21.238;2023-05-22T07:28:15;100745.48;;;20.97;38.41
56582;BME280;42463;52.214;21.238;2023-05-22T07:30:37;100744.80;;;21.02;38.64
56582;BME280;42463;52.214;21.238;2023-05-22T07:32:42;100742.73;;;21.05;39.02
56582;BME280;42463;52.214;21.238;2023-05-22T07:34:48;100740.02;;;21.12;39.20
56582;BME280;42463;52.214;21.238;2023-05-22T07:36:54;100742.02;;;21.18;38.97
56582;BME280;42463;52.214;21.238;2023-05-22T07:39:00;100739.48;;;21.24;39.02
56582;BME280;42463;52.214;21.238;2023-05-22T07:41:06;100737.59;;;21.31;38.31
56582;BME280;42463;52.214;21.238;2023-05-22T07:43:11;100730.64;;;21.37;37.38
56582;BME280;42463;52.214;21.238;2023-05-22T07:45:18;100732.25;;;21.44;37.45
56582;BME280;42463;52.214;21.238;2023-05-22T07:47:24;100723.38;;;21.44;37.13
56582;BME280;42463;52.214;21.238;2023-05-22T07:49:30;100727.83;;;21.52;37.75
56582;BME280;42463;52.214;21.238;2023-05-22T07:51:35;100724.89;;;21.58;37.74
56582;BME280;42463;52.214;21.238;2023-05-22T07:53:41;100720.59;;;21.64;37.34
56582;BME280;42463;52.214;21.238;2023-05-22T07:55:46;100717.29;;;21.71;37.18
56582;BME280;42463;52.214;21.238;2023-05-22T07:57:52;100714.12;;;21.79;36.92
56582;BME280;42463;52.214;21.238;2023-05-22T08:00:06;100714.25;;;21.84;36.97
56582;BME280;42463;52.214;21.238;2023-05-22T08:02:17;100720.29;;;21.93;36.81
56582;BME280;42463;52.214;21.238;2023-05-22T08:04:22;100718.21;;;21.98;36.38
56582;BME280;42463;52.214;21.238;2023-05-22T08:06:28;100718.04;;;21.99;36.27
56582;BME280;42463;52.214;21.238;2023-05-22T08:08:34;100720.57;;;22.03;36.13
56582;BME280;42463;52.214;21.238;2023-05-22T08:10:39;100722.56;;;22.04;35.70
56582;BME280;42463;52.214;21.238;2023-05-22T08:12:48;100717.51;;;22.08;35.70
56582;BME280;42463;52.214;21.238;2023-05-22T08:15:22;100720.20;;;22.16;35.79
56582;BME280;42463;52.214;21.238;2023-05-22T08:17:27;100717.64;;;22.22;35.71
56582;BME280;42463;52.214;21.238;2023-05-22T08:19:32;100723.06;;;22.29;35.54
56582;BME280;42463;52.214;21.238;2023-05-22T08:21:38;100718.86;;;22.36;35.39
56582;BME280;42463;52.214;21.238;2023-05-22T08:23:43;100721.23;;;22.43;34.52
56582;BME280;42463;52.214;21.238;2023-05-22T08:25:49;100721.27;;;22.48;34.80
56582;BME280;42463;52.214;21.238;2023-05-22T08:27:54;100722.04;;;22.55;33.78
56582;BME280;42463;52.214;21.238;2023-05-22T08:30:00;100720.80;;;22.57;33.50
56582;BME280;42463;52.214;21.238;2023-05-22T08:32:07;100716.88;;;22.64;33.06
56582;BME280;42463;52.214;21.238;2023-05-22T08:34:13;100713.92;;;22.68;33.50
56582;BME280;42463;52.214;21.238;2023-05-22T08:36:18;100716.12;;;22.73;33.37
56582;BME280;42463;52.214;21.238;2023-05-22T08:38:26;100712.46;;;22.77;33.27
56582;BME280;42463;52.214;21.238;2023-05-22T08:40:34;100712.42;;;22.80;33.04
56582;BME280;42463;52.214;21.238;2023-05-22T08:42:41;100709.36;;;22.81;33.49
56582;BME280;42463;52.214;21.238;2023-05-22T08:44:46;100711.86;;;22.82;33.35
56582;BME280;42463;52.214;21.238;2023-05-22T08:46:54;100710.17;;;22.83;33.19
56582;BME280;42463;52.214;21.238;2023-05-22T08:49:04;100711.34;;;22.86;33.23
56582;BME280;42463;52.214;21.238;2023-05-22T08:51:14;100711.31;;;22.89;33.35
56582;BME280;42463;52.214;21.238;2023-05-22T08:53:23;100709.73;;;22.90;33.88
56582;BME280;42463;52.214;21.238;2023-05-22T08:55:31;100709.36;;;22.92;34.05
56582;BME280;42463;52.214;21.238;2023-05-22T08:57:37;100710.68;;;22.96;33.59
56582;BME280;42463;52.214;21.238;2023-05-22T08:59:43;100709.34;;;22.98;32.24
56582;BME280;42463;52.214;21.238;2023-05-22T09:01:49;100705.66;;;23.00;31.33
56582;BME280;42463;52.214;21.238;2023-05-22T09:03:56;100701.73;;;23.05;31.73
56582;BME280;42463;52.214;21.238;2023-05-22T09:06:04;100704.92;;;23.07;31.11
56582;BME280;42463;52.214;21.238;2023-05-22T09:08:14;100703.85;;;23.06;30.83
56582;BME280;42463;52.214;21.238;2023-05-22T09:10:21;100699.42;;;23.06;30.54
56582;BME280;42463;52.214;21.238;2023-05-22T09:12:27;100698.32;;;23.06;30.54
56582;BME280;42463;52.214;21.238;2023-05-22T09:14:38;100698.94;;;23.06;30.63
56582;BME280;42463;52.214;21.238;2023-05-22T09:16:49;100698.34;;;23.09;30.89
56582;BME280;42463;52.214;21.238;2023-05-22T09:18:57;100700.54;;;23.10;30.53
56582;BME280;42463;52.214;21.238;2023-05-22T09:21:04;100705.49;;;23.10;30.87
56582;BME280;42463;52.214;21.238;2023-05-22T09:23:13;100698.70;;;23.08;30.57
56582;BME280;42463;52.214;21.238;2023-05-22T09:25:21;100697.47;;;23.05;30.40
56582;BME280;42463;52.214;21.238;2023-05-22T09:27:27;100695.22;;;23.06;30.88
56582;BME280;42463;52.214;21.238;2023-05-22T09:29:32;100689.80;;;23.11;31.07
56582;BME280;42463;52.214;21.238;2023-05-22T09:31:51;100691.30;;;23.16;30.97
56582;BME280;42463;52.214;21.238;2023-05-22T09:33:57;100692.30;;;23.21;31.43
56582;BME280;42463;52.214;21.238;2023-05-22T09:36:03;100684.04;;;23.26;31.87
56582;BME280;42463;52.214;21.238;2023-05-22T09:38:13;100684.11;;;23.30;31.39
56582;BME280;42463;52.214;21.238;2023-05-22T09:40:18;100682.15;;;23.32;31.21
56582;BME280;42463;52.214;21.238;2023-05-22T09:42:24;100680.02;;;23.32;31.30
56582;BME280;42463;52.214;21.238;2023-05-22T09:44:30;100680.03;;;23.37;31.33
56582;BME280;42463;52.214;21.238;2023-05-22T09:46:41;100682.92;;;23.38;30.87
56582;BME280;42463;52.214;21.238;2023-05-22T09:48:51;100684.33;;;23.33;30.99
56582;BME280;42463;52.214;21.238;2023-05-22T09:50:59;100678.73;;;23.32;30.91
56582;BME280;42463;52.214;21.238;2023-05-22T09:53:07;100677.41;;;23.35;31.08
56582;BME280;42463;52.214;21.238;2023-05-22T09:55:14;100673.73;;;23.41;31.42
56582;BME280;42463;52.214;21.238;2023-05-22T09:57:21;100670.54;;;23.46;31.02
56582;BME280;42463;52.214;21.238;2023-05-22T09:59:28;100672.29;;;23.56;31.13
56582;BME280;42463;52.214;21.238;2023-05-22T10:01:36;100672.29;;;23.64;31.06
56582;BME280;42463;52.214;21.238;2023-05-22T10:03:43;100669.05;;;23.70;30.30
56582;BME280;42463;52.214;21.238;2023-05-22T10:05:52;100667.14;;;23.76;30.12
56582;BME280;42463;52.214;21.238;2023-05-22T10:08:09;100665.63;;;23.82;29.95
56582;BME280;42463;52.214;21.238;2023-05-22T10:10:17;100663.13;;;23.87;30.13
56582;BME280;42463;52.214;21.238;2023-05-22T10:12:23;100667.73;;;23.91;30.28
56582;BME280;42463;52.214;21.238;2023-05-22T10:14:30;100661.95;;;23.99;30.63
56582;BME280;42463;52.214;21.238;2023-05-22T10:16:35;100664.15;;;24.05;30.33
56582;BME280;42463;52.214;21.238;2023-05-22T10:18:43;100665.11;;;24.03;29.87
56582;BME280;42463;52.214;21.238;2023-05-22T10:20:49;100664.27;;;24.00;30.28
56582;BME280;42463;52.214;21.238;2023-05-22T10:22:56;100661.70;;;23.97;30.06
56582;BME280;42463;52.214;21.238;2023-05-22T10:25:02;100659.80;;;23.95;30.29
56582;BME280;42463;52.214;21.238;2023-05-22T10:27:08;100659.09;;;23.94;30.28
56582;BME280;42463;52.214;21.238;2023-05-22T10:29:17;100656.46;;;23.96;30.57
56582;BME280;42463;52.214;21.238;2023-05-22T10:31:28;100658.91;;;23.99;30.47
56582;BME280;42463;52.214;21.238;2023-05-22T10:33:52;100652.84;;;23.97;30.20
56582;BME280;42463;52.214;21.238;2023-05-22T10:36:02;100655.57;;;23.98;30.50
56582;BME280;42463;52.214;21.238;2023-05-22T10:38:24;100656.85;;;23.96;30.87
56582;BME280;42463;52.214;21.238;2023-05-22T10:40:32;100656.80;;;23.95;30.59
56582;BME280;42463;52.214;21.238;2023-05-22T10:42:39;100654.65;;;23.91;30.01
56582;BME280;42463;52.214;21.238;2023-05-22T10:44:47;100652.98;;;23.87;30.14
56582;BME280;42463;52.214;21.238;2023-05-22T10:46:52;100659.80;;;23.87;30.41
56582;BME280;42463;52.214;21.238;2023-05-22T10:48:58;100655.88;;;23.88;30.30
56582;BME280;42463;52.214;21.238;2023-05-22T10:51:05;100655.09;;;23.89;30.46
56582;BME280;42463;52.214;21.238;2023-05-22T10:53:22;100650.67;;;23.92;30.83
56582;BME280;42463;52.214;21.238;2023-05-22T10:55:29;100649.87;;;23.94;30.61
56582;BME280;42463;52.214;21.238;2023-05-22T10:57:34;100650.48;;;23.93;30.32
56582;BME280;42463;52.214;21.238;2023-05-22T10:59:41;100650.00;;;23.89;29.95
56582;BME280;42463;52.214;21.238;2023-05-22T11:01:46;100646.02;;;23.85;30.02
56582;BME280;42463;52.214;21.238;2023-05-22T11:03:57;100641.00;;;23.81;30.17
56582;BME280;42463;52.214;21.238;2023-05-22T11:06:03;100638.98;;;23.81;30.33